sensor_id;sensor_type;location;lat;lon;timestamp;noise_LAeq;noise_LA_min;noise_LA_max;noise_LA01;noise_LA95
61095;Laerm;20450;49.074;9.158;2023-05-31T00:02:07;41.32;39.21;43.39;;
61095;Laerm;20450;49.074;9.158;2023-05-31T00:04:35;41.32;39.46;42.76;;
61095;Laerm;20450;49.074;9.158;2023-05-31T00:07:04;41.54;39.81;45.17;;
61095;Laerm;20450;49.074;9.158;2023-05-31T00:09:31;41.44;39.08;43.39;;
61095;Laerm;20450;49.074;9.158;2023-05-31T00:11:58;41.48;39.08;43.94;;
61095;Laerm;20450;49.074;9.158;2023-05-31T00:14:27;41.88;40.03;44.43;;
61095;Laerm;20450;49.074;9.158;2023-05-31T00:16:54;41.37;38.87;43.09;;
61095;Laerm;20450;49.074;9.158;2023-05-31T00:19:43;41.50;39.70;43.39;;
61095;Laerm;20450;49.074;9.158;2023-05-31T00:22:10;41.38;39.57;42.76;;
61095;Laerm;20450;49.074;9.158;2023-05-31T00:24:38;41.44;39.46;44.27;;
61095;Laerm;20450;49.074;9.158;2023-05-31T00:27:13;41.46;39.46;44.43;;
61095;Laerm;20450;49.074;9.158;2023-05-31T00:29:40;41.27;39.21;42.98;;
61095;Laerm;20450;49.074;9.158;2023-05-31T00:32:08;41.30;39.46;42.71;;
61095;Laerm;20450;49.074;9.158;2023-05-31T00:34:35;41.73;40.13;42.98;;
61095;Laerm;20450;49.074;9.158;2023-05-31T00:37:05;41.88;39.46;45.01;;
61095;Laerm;20450;49.074;9.158;2023-05-31T00:39:33;41.56;39.70;45.57;;
61095;Laerm;20450;49.074;9.158;2023-05-31T00:42:00;41.73;38.95;45.17;;
61095;Laerm;20450;49.074;9.158;2023-05-31T00:44:27;41.15;39.08;44.94;;
61095;Laerm;20450;49.074;9.158;2023-05-31T00:46:54;41.23;38.81;44.80;;
61095;Laerm;20450;49.074;9.158;2023-05-31T00:49:21;41.15;38.95;44.80;;
61095;Laerm;20450;49.074;9.158;2023-05-31T00:51:49;41.12;38.37;45.17;;
61095;Laerm;20450;49.074;9.158;2023-05-31T00:54:18;40.56;38.05;42.29;;
61095;Laerm;20450;49.074;9.158;2023-05-31T00:56:45;40.50;38.37;44.49;;
61095;Laerm;20450;49.074;9.158;2023-05-31T00:59:14;40.76;38.05;43.39;;
61095;Laerm;20450;49.074;9.158;2023-05-31T01:01:42;40.66;38.52;43.81;;
61095;Laerm;20450;49.074;9.158;2023-05-31T01:04:14;40.95;38.52;45.72;;
61095;Laerm;20450;49.074;9.158;2023-05-31T01:06:42;40.82;38.67;42.93;;
61095;Laerm;20450;49.074;9.158;2023-05-31T01:09:09;40.89;38.95;42.22;;
61095;Laerm;20450;49.074;9.158;2023-05-31T01:11:56;41.39;39.34;49.00;;
61095;Laerm;20450;49.074;9.158;2023-05-31T01:14:36;41.14;39.08;43.86;;
61095;Laerm;20450;49.074;9.158;2023-05-31T01:17:17;41.52;39.34;45.17;;
61095;Laerm;20450;49.074;9.158;2023-05-31T01:19:54;41.63;39.89;44.03;;
61095;Laerm;20450;49.074;9.158;2023-05-31T01:22:45;41.43;39.21;44.43;;
61095;Laerm;20450;49.074;9.158;2023-05-31T01:25:43;41.16;39.34;44.01;;
61095;Laerm;20450;49.074;9.158;2023-05-31T01:28:16;40.86;38.95;42.41;;
61095;Laerm;20450;49.074;9.158;2023-05-31T01:30:45;41.39;38.67;43.72;;
61095;Laerm;20450;49.074;9.158;2023-05-31T01:33:17;41.16;38.95;43.09;;
61095;Laerm;20450;49.074;9.158;2023-05-31T01:35:45;41.45;39.70;48.37;;
61095;Laerm;20450;49.074;9.158;2023-05-31T01:38:12;41.38;39.46;42.93;;
61095;Laerm;20450;49.074;9.158;2023-05-31T01:40:40;41.73;39.58;45.51;;
61095;Laerm;20450;49.074;9.158;2023-05-31T01:43:09;41.43;39.08;43.34;;
61095;Laerm;20450;49.074;9.158;2023-05-31T01:45:39;41.57;39.08;44.97;;
61095;Laerm;20450;49.074;9.158;2023-05-31T01:48:10;42.13;39.21;46.33;;
61095;Laerm;20450;49.074;9.158;2023-05-31T01:50:40;41.34;38.95;43.63;;
61095;Laerm;20450;49.074;9.158;2023-05-31T01:53:08;41.13;38.95;43.54;;
61095;Laerm;20450;49.074;9.158;2023-05-31T01:55:36;41.32;39.58;43.34;;
61095;Laerm;20450;49.074;9.158;2023-05-31T01:58:05;41.33;39.34;43.24;;
61095;Laerm;20450;49.074;9.158;2023-05-31T02:00:40;41.20;38.67;48.57;;
61095;Laerm;20450;49.074;9.158;2023-05-31T02:03:11;42.00;40.13;44.58;;
61095;Laerm;20450;49.074;9.158;2023-05-31T02:05:55;41.71;39.58;44.80;;
61095;Laerm;20450;49.074;9.158;2023-05-31T02:08:23;42.04;38.95;44.94;;
61095;Laerm;20450;49.074;9.158;2023-05-31T02:10:50;41.53;39.58;43.09;;
61095;Laerm;20450;49.074;9.158;2023-05-31T02:13:19;42.02;39.81;48.18;;
61095;Laerm;20450;49.074;9.158;2023-05-31T02:15:48;41.89;39.70;43.68;;
61095;Laerm;20450;49.074;9.158;2023-05-31T02:18:17;41.93;39.81;43.90;;
61095;Laerm;20450;49.074;9.158;2023-05-31T02:20:45;41.96;39.89;49.24;;
61095;Laerm;20450;49.074;9.158;2023-05-31T02:23:17;42.60;40.13;52.02;;
61095;Laerm;20450;49.074;9.158;2023-05-31T02:25:45;43.16;39.70;56.72;;
61095;Laerm;20450;49.074;9.158;2023-05-31T02:28:12;43.48;39.70;55.83;;
61095;Laerm;20450;49.074;9.158;2023-05-31T02:30:40;44.29;39.92;55.92;;
61095;Laerm;20450;49.074;9.158;2023-05-31T02:33:09;42.61;40.23;57.08;;
61095;Laerm;20450;49.074;9.158;2023-05-31T02:35:37;42.17;39.81;47.34;;
61095;Laerm;20450;49.074;9.158;2023-05-31T02:38:05;42.32;39.81;48.71;;
61095;Laerm;20450;49.074;9.158;2023-05-31T02:40:32;42.26;40.13;50.58;;
61095;Laerm;20450;49.074;9.158;2023-05-31T02:42:59;43.31;39.70;53.64;;
61095;Laerm;20450;49.074;9.158;2023-05-31T02:45:27;43.14;40.43;51.06;;
61095;Laerm;20450;49.074;9.158;2023-05-31T02:47:54;43.47;40.23;51.62;;
61095;Laerm;20450;49.074;9.158;2023-05-31T02:50:42;44.67;40.13;60.83;;
61095;Laerm;20450;49.074;9.158;2023-05-31T02:53:22;44.15;40.62;57.46;;
61095;Laerm;20450;49.074;9.158;2023-05-31T02:55:53;44.31;40.23;56.06;;
61095;Laerm;20450;49.074;9.158;2023-05-31T02:58:24;44.23;40.43;58.68;;
61095;Laerm;20450;49.074;9.158;2023-05-31T03:01:09;43.92;40.43;57.05;;
61095;Laerm;20450;49.074;9.158;2023-05-31T03:03:45;43.49;40.43;53.86;;
61095;Laerm;20450;49.074;9.158;2023-05-31T03:06:23;43.78;40.53;54.04;;
61095;Laerm;20450;49.074;9.158;2023-05-31T03:13:40;42.81;40.13;52.39;;
61095;Laerm;20450;49.074;9.158;2023-05-31T03:16:07;43.27;40.80;51.78;;
61095;Laerm;20450;49.074;9.158;2023-05-31T03:18:36;42.76;40.33;50.98;;
61095;Laerm;20450;49.074;9.158;2023-05-31T03:21:05;42.97;40.43;50.85;;
61095;Laerm;20450;49.074;9.158;2023-05-31T03:23:33;43.01;40.98;49.41;;
61095;Laerm;20450;49.074;9.158;2023-05-31T03:26:01;43.25;40.89;53.62;;
61095;Laerm;20450;49.074;9.158;2023-05-31T03:28:28;43.20;40.96;52.12;;
61095;Laerm;20450;49.074;9.158;2023-05-31T03:30:55;43.15;40.89;49.52;;
61095;Laerm;20450;49.074;9.158;2023-05-31T03:33:22;43.08;40.89;51.71;;
61095;Laerm;20450;49.074;9.158;2023-05-31T03:35:52;42.99;40.71;50.96;;
61095;Laerm;20450;49.074;9.158;2023-05-31T03:38:20;42.70;40.23;49.93;;
61095;Laerm;20450;49.074;9.158;2023-05-31T03:40:48;43.19;40.53;51.93;;
61095;Laerm;20450;49.074;9.158;2023-05-31T03:43:16;43.06;40.80;51.70;;
61095;Laerm;20450;49.074;9.158;2023-05-31T03:45:44;43.38;40.71;51.48;;
61095;Laerm;20450;49.074;9.158;2023-05-31T03:48:11;43.66;40.98;52.33;;
61095;Laerm;20450;49.074;9.158;2023-05-31T03:50:39;42.95;40.98;48.00;;
61095;Laerm;20450;49.074;9.158;2023-05-31T03:53:06;43.32;41.22;52.24;;
61095;Laerm;20450;49.074;9.158;2023-05-31T03:55:33;42.69;40.89;47.52;;
61095;Laerm;20450;49.074;9.158;2023-05-31T03:58:02;42.97;40.43;50.77;;
61095;Laerm;20450;49.074;9.158;2023-05-31T04:00:30;43.45;41.14;62.56;;
61095;Laerm;20450;49.074;9.158;2023-05-31T04:02:57;43.18;41.22;50.96;;
61095;Laerm;20450;49.074;9.158;2023-05-31T04:05:34;43.05;40.98;49.56;;
61095;Laerm;20450;49.074;9.158;2023-05-31T04:08:01;43.63;41.48;51.70;;
61095;Laerm;20450;49.074;9.158;2023-05-31T04:10:31;43.90;41.53;53.06;;
61095;Laerm;20450;49.074;9.158;2023-05-31T04:12:59;44.09;41.61;57.47;;
61095;Laerm;20450;49.074;9.158;2023-05-31T04:15:31;43.45;41.61;49.58;;
61095;Laerm;20450;49.074;9.158;2023-05-31T04:18:03;54.53;41.82;74.73;;
61095;Laerm;20450;49.074;9.158;2023-05-31T04:20:31;44.53;41.75;54.11;;
61095;Laerm;20450;49.074;9.158;2023-05-31T04:22:58;44.12;41.46;57.40;;
61095;Laerm;20450;49.074;9.158;2023-05-31T04:25:26;56.17;41.75;73.73;;
61095;Laerm;20450;49.074;9.158;2023-05-31T04:27:53;44.25;41.96;57.03;;
61095;Laerm;20450;49.074;9.158;2023-05-31T04:30:21;44.07;41.48;51.64;;
61095;Laerm;20450;49.074;9.158;2023-05-31T04:32:49;45.42;41.75;56.53;;
61095;Laerm;20450;49.074;9.158;2023-05-31T04:35:17;44.30;42.09;52.34;;
61095;Laerm;20450;49.074;9.158;2023-05-31T04:37:47;44.14;41.68;51.44;;
61095;Laerm;20450;49.074;9.158;2023-05-31T04:40:17;43.57;41.89;46.48;;
61095;Laerm;20450;49.074;9.158;2023-05-31T04:42:44;44.19;41.61;60.83;;
61095;Laerm;20450;49.074;9.158;2023-05-31T04:45:24;44.89;42.22;51.70;;
61095;Laerm;20450;49.074;9.158;2023-05-31T04:47:54;44.74;42.03;56.80;;
61095;Laerm;20450;49.074;9.158;2023-05-31T04:50:22;44.74;41.30;54.79;;
61095;Laerm;20450;49.074;9.158;2023-05-31T04:52:49;44.21;41.14;55.14;;
61095;Laerm;20450;49.074;9.158;2023-05-31T04:55:16;44.24;41.14;52.65;;
61095;Laerm;20450;49.074;9.158;2023-05-31T04:57:43;43.41;40.71;50.95;;
61095;Laerm;20450;49.074;9.158;2023-05-31T05:00:14;44.39;41.75;54.79;;
61095;Laerm;20450;49.074;9.158;2023-05-31T05:02:57;43.57;40.98;53.31;;
61095;Laerm;20450;49.074;9.158;2023-05-31T05:05:28;44.56;41.38;58.78;;
61095;Laerm;20450;49.074;9.158;2023-05-31T05:07:59;44.65;41.14;53.47;;
61095;Laerm;20450;49.074;9.158;2023-05-31T05:10:26;44.32;41.61;54.46;;
61095;Laerm;20450;49.074;9.158;2023-05-31T05:12:54;45.82;41.38;66.62;;
61095;Laerm;20450;49.074;9.158;2023-05-31T05:15:21;44.36;41.46;55.28;;
61095;Laerm;20450;49.074;9.158;2023-05-31T05:17:48;43.51;41.30;48.85;;
61095;Laerm;20450;49.074;9.158;2023-05-31T05:20:17;44.27;41.14;53.59;;
61095;Laerm;20450;49.074;9.158;2023-05-31T05:22:52;44.77;40.43;60.30;;
61095;Laerm;20450;49.074;9.158;2023-05-31T05:25:30;45.17;40.80;55.28;;
61095;Laerm;20450;49.074;9.158;2023-05-31T05:27:57;44.95;40.98;57.52;;
61095;Laerm;20450;49.074;9.158;2023-05-31T05:30:24;43.65;40.89;53.35;;
61095;Laerm;20450;49.074;9.158;2023-05-31T05:32:51;43.85;40.33;50.79;;
61095;Laerm;20450;49.074;9.158;2023-05-31T05:35:20;43.81;41.06;50.93;;
61095;Laerm;20450;49.074;9.158;2023-05-31T05:37:47;44.07;40.33;51.46;;
61095;Laerm;20450;49.074;9.158;2023-05-31T05:40:16;44.34;41.14;55.15;;
61095;Laerm;20450;49.074;9.158;2023-05-31T05:42:43;44.91;40.98;58.84;;
61095;Laerm;20450;49.074;9.158;2023-05-31T05:45:11;44.48;40.89;52.60;;
61095;Laerm;20450;49.074;9.158;2023-05-31T05:47:41;43.07;40.53;48.07;;
61095;Laerm;20450;49.074;9.158;2023-05-31T05:50:09;43.22;40.80;49.44;;
61095;Laerm;20450;49.074;9.158;2023-05-31T05:52:39;43.71;41.06;56.31;;
61095;Laerm;20450;49.074;9.158;2023-05-31T05:55:08;45.41;41.22;54.92;;
61095;Laerm;20450;49.074;9.158;2023-05-31T05:57:36;43.77;40.33;56.81;;
61095;Laerm;20450;49.074;9.158;2023-05-31T06:00:21;43.50;40.45;51.21;;
61095;Laerm;20450;49.074;9.158;2023-05-31T06:02:54;44.14;40.33;55.41;;
61095;Laerm;20450;49.074;9.158;2023-05-31T06:05:21;44.59;39.58;59.17;;
61095;Laerm;20450;49.074;9.158;2023-05-31T06:07:50;44.86;41.22;62.96;;
61095;Laerm;20450;49.074;9.158;2023-05-31T06:10:18;45.00;39.34;66.38;;
61095;Laerm;20450;49.074;9.158;2023-05-31T06:12:46;46.32;41.14;68.72;;
61095;Laerm;20450;49.074;9.158;2023-05-31T06:15:16;44.22;39.81;58.68;;
61095;Laerm;20450;49.074;9.158;2023-05-31T06:17:44;44.93;40.13;59.83;;
61095;Laerm;20450;49.074;9.158;2023-05-31T06:20:11;45.53;41.30;67.82;;
61095;Laerm;20450;49.074;9.158;2023-05-31T06:22:39;46.78;40.33;66.77;;
61095;Laerm;20450;49.074;9.158;2023-05-31T06:25:08;44.98;40.23;61.93;;
61095;Laerm;20450;49.074;9.158;2023-05-31T06:27:35;45.52;40.53;66.10;;
61095;Laerm;20450;49.074;9.158;2023-05-31T06:30:03;43.28;40.13;53.40;;
61095;Laerm;20450;49.074;9.158;2023-05-31T06:32:36;43.64;40.23;56.87;;
61095;Laerm;20450;49.074;9.158;2023-05-31T06:35:07;43.20;40.23;52.79;;
61095;Laerm;20450;49.074;9.158;2023-05-31T06:37:34;44.08;40.71;52.89;;
61095;Laerm;20450;49.074;9.158;2023-05-31T06:40:03;45.37;40.03;58.78;;
61095;Laerm;20450;49.074;9.158;2023-05-31T06:42:36;44.17;40.71;55.68;;
61095;Laerm;20450;49.074;9.158;2023-05-31T06:45:24;44.86;40.89;58.39;;
61095;Laerm;20450;49.074;9.158;2023-05-31T06:47:52;43.43;39.46;53.72;;
61095;Laerm;20450;49.074;9.158;2023-05-31T06:50:22;43.84;39.78;52.78;;
61095;Laerm;20450;49.074;9.158;2023-05-31T06:53:08;44.81;40.62;61.46;;
61095;Laerm;20450;49.074;9.158;2023-05-31T06:55:41;44.86;40.23;58.82;;
61095;Laerm;20450;49.074;9.158;2023-05-31T06:58:14;44.38;40.53;57.15;;
61095;Laerm;20450;49.074;9.158;2023-05-31T07:00:42;46.40;40.63;60.48;;
61095;Laerm;20450;49.074;9.158;2023-05-31T07:03:09;44.83;40.13;61.60;;
61095;Laerm;20450;49.074;9.158;2023-05-31T07:05:37;44.87;41.46;59.02;;
61095;Laerm;20450;49.074;9.158;2023-05-31T07:08:58;46.01;41.30;58.92;;
61095;Laerm;20450;49.074;9.158;2023-05-31T07:11:38;45.58;41.38;58.51;;
61095;Laerm;20450;49.074;9.158;2023-05-31T07:14:08;45.91;40.33;61.06;;
61095;Laerm;20450;49.074;9.158;2023-05-31T07:16:36;45.16;40.71;58.96;;
61095;Laerm;20450;49.074;9.158;2023-05-31T07:19:04;46.03;41.75;63.15;;
61095;Laerm;20450;49.074;9.158;2023-05-31T07:21:31;45.03;41.75;58.63;;
61095;Laerm;20450;49.074;9.158;2023-05-31T07:24:00;44.81;41.38;54.84;;
61095;Laerm;20450;49.074;9.158;2023-05-31T07:26:30;44.24;41.22;55.61;;
61095;Laerm;20450;49.074;9.158;2023-05-31T07:28:57;44.24;40.33;54.37;;
61095;Laerm;20450;49.074;9.158;2023-05-31T07:35:10;44.58;40.62;55.64;;
61095;Laerm;20450;49.074;9.158;2023-05-31T07:37:37;45.19;39.08;59.28;;
61095;Laerm;20450;49.074;9.158;2023-05-31T07:40:08;44.61;41.22;57.56;;
61095;Laerm;20450;49.074;9.158;2023-05-31T07:42:35;43.85;39.81;56.01;;
61095;Laerm;20450;49.074;9.158;2023-05-31T07:45:02;44.07;40.80;52.18;;
61095;Laerm;20450;49.074;9.158;2023-05-31T07:47:32;45.76;40.53;57.87;;
61095;Laerm;20450;49.074;9.158;2023-05-31T07:49:59;45.72;41.06;56.37;;
61095;Laerm;20450;49.074;9.158;2023-05-31T07:52:28;47.37;40.33;63.63;;
61095;Laerm;20450;49.074;9.158;2023-05-31T07:54:55;47.57;41.06;63.82;;
61095;Laerm;20450;49.074;9.158;2023-05-31T07:57:22;47.07;41.14;64.06;;
61095;Laerm;20450;49.074;9.158;2023-05-31T07:59:50;46.54;41.14;63.50;;
61095;Laerm;20450;49.074;9.158;2023-05-31T08:02:17;45.01;40.33;58.11;;
61095;Laerm;20450;49.074;9.158;2023-05-31T08:04:46;45.45;40.53;58.23;;
61095;Laerm;20450;49.074;9.158;2023-05-31T08:07:13;45.60;40.03;61.07;;
61095;Laerm;20450;49.074;9.158;2023-05-31T08:09:41;47.72;39.57;67.45;;
61095;Laerm;20450;49.074;9.158;2023-05-31T08:12:09;45.50;40.13;57.44;;
61095;Laerm;20450;49.074;9.158;2023-05-31T08:14:36;44.29;39.58;57.67;;
61095;Laerm;20450;49.074;9.158;2023-05-31T08:17:31;45.78;40.43;58.23;;
61095;Laerm;20450;49.074;9.158;2023-05-31T08:19:59;46.29;40.43;60.79;;
61095;Laerm;20450;49.074;9.158;2023-05-31T08:22:30;46.18;39.99;65.70;;
61095;Laerm;20450;49.074;9.158;2023-05-31T08:24:59;44.54;40.89;57.30;;
61095;Laerm;20450;49.074;9.158;2023-05-31T08:27:28;47.19;40.89;64.21;;
61095;Laerm;20450;49.074;9.158;2023-05-31T08:29:55;46.35;40.53;60.46;;
61095;Laerm;20450;49.074;9.158;2023-05-31T08:32:33;45.06;40.43;54.93;;
61095;Laerm;20450;49.074;9.158;2023-05-31T08:35:13;47.47;40.89;69.36;;
61095;Laerm;20450;49.074;9.158;2023-05-31T08:37:40;47.45;40.62;64.23;;
61095;Laerm;20450;49.074;9.158;2023-05-31T08:40:10;44.92;40.71;54.60;;
61095;Laerm;20450;49.074;9.158;2023-05-31T08:42:44;43.78;40.43;60.41;;
61095;Laerm;20450;49.074;9.158;2023-05-31T08:45:17;45.70;41.30;57.64;;
61095;Laerm;20450;49.074;9.158;2023-05-31T08:47:55;46.80;41.96;61.50;;
61095;Laerm;20450;49.074;9.158;2023-05-31T08:50:28;43.77;40.80;53.27;;
61095;Laerm;20450;49.074;9.158;2023-05-31T08:52:56;45.54;41.38;58.21;;
61095;Laerm;20450;49.074;9.158;2023-05-31T08:55:26;45.93;39.92;59.51;;
61095;Laerm;20450;49.074;9.158;2023-05-31T08:57:56;46.85;40.23;65.03;;
61095;Laerm;20450;49.074;9.158;2023-05-31T09:00:25;44.37;39.58;60.06;;
61095;Laerm;20450;49.074;9.158;2023-05-31T09:02:57;46.79;40.89;61.38;;
61095;Laerm;20450;49.074;9.158;2023-05-31T09:05:26;47.93;40.03;64.28;;
61095;Laerm;20450;49.074;9.158;2023-05-31T09:07:59;44.75;40.13;60.26;;
61095;Laerm;20450;49.074;9.158;2023-05-31T09:10:28;51.12;40.33;67.61;;
61095;Laerm;20450;49.074;9.158;2023-05-31T09:12:56;49.37;40.43;63.91;;
61095;Laerm;20450;49.074;9.158;2023-05-31T09:15:25;46.38;41.96;62.15;;
61095;Laerm;20450;49.074;9.158;2023-05-31T09:17:52;46.63;41.82;63.06;;
61095;Laerm;20450;49.074;9.158;2023-05-31T09:20:30;47.45;42.16;66.81;;
61095;Laerm;20450;49.074;9.158;2023-05-31T09:23:02;46.91;41.75;62.11;;
61095;Laerm;20450;49.074;9.158;2023-05-31T09:25:43;45.65;40.45;61.71;;
61095;Laerm;20450;49.074;9.158;2023-05-31T09:28:13;45.02;39.46;59.56;;
61095;Laerm;20450;49.074;9.158;2023-05-31T09:30:41;48.81;40.13;68.21;;
61095;Laerm;20450;49.074;9.158;2023-05-31T09:33:12;48.86;40.71;69.83;;
61095;Laerm;20450;49.074;9.158;2023-05-31T09:35:55;47.36;40.03;64.84;;
61095;Laerm;20450;49.074;9.158;2023-05-31T09:38:37;46.89;41.38;69.66;;
61095;Laerm;20450;49.074;9.158;2023-05-31T09:41:40;51.86;41.06;69.64;;
61095;Laerm;20450;49.074;9.158;2023-05-31T09:44:19;45.12;40.23;56.66;;
61095;Laerm;20450;49.074;9.158;2023-05-31T09:46:55;45.00;40.53;61.10;;
61095;Laerm;20450;49.074;9.158;2023-05-31T09:49:43;49.45;39.81;67.89;;
61095;Laerm;20450;49.074;9.158;2023-05-31T09:52:13;49.12;40.23;68.37;;
61095;Laerm;20450;49.074;9.158;2023-05-31T09:54:41;44.14;39.92;55.90;;
61095;Laerm;20450;49.074;9.158;2023-05-31T09:57:38;46.20;40.62;60.50;;
61095;Laerm;20450;49.074;9.158;2023-05-31T10:00:12;45.90;40.62;59.74;;
61095;Laerm;20450;49.074;9.158;2023-05-31T10:02:42;45.45;40.80;69.61;;
61095;Laerm;20450;49.074;9.158;2023-05-31T10:05:11;45.80;40.53;67.03;;
61095;Laerm;20450;49.074;9.158;2023-05-31T10:07:53;46.46;39.08;63.37;;
61095;Laerm;20450;49.074;9.158;2023-05-31T10:10:24;48.09;40.23;68.40;;
61095;Laerm;20450;49.074;9.158;2023-05-31T10:13:29;47.91;38.95;67.60;;
61095;Laerm;20450;49.074;9.158;2023-05-31T10:16:05;51.42;40.43;70.17;;
61095;Laerm;20450;49.074;9.158;2023-05-31T10:18:40;47.80;40.03;68.40;;
61095;Laerm;20450;49.074;9.158;2023-05-31T10:21:24;50.33;39.34;69.11;;
61095;Laerm;20450;49.074;9.158;2023-05-31T10:24:03;50.31;40.62;68.31;;
61095;Laerm;20450;49.074;9.158;2023-05-31T10:26:46;51.01;39.81;68.46;;
61095;Laerm;20450;49.074;9.158;2023-05-31T10:29:26;52.45;39.46;74.68;;
61095;Laerm;20450;49.074;9.158;2023-05-31T10:32:05;47.70;39.92;65.08;;
61095;Laerm;20450;49.074;9.158;2023-05-31T10:34:37;46.17;39.92;63.48;;
61095;Laerm;20450;49.074;9.158;2023-05-31T10:37:08;46.60;38.81;62.87;;
61095;Laerm;20450;49.074;9.158;2023-05-31T10:39:49;46.96;39.58;65.25;;
61095;Laerm;20450;49.074;9.158;2023-05-31T10:42:25;47.74;40.03;66.30;;
61095;Laerm;20450;49.074;9.158;2023-05-31T10:45:03;48.92;40.89;70.90;;
61095;Laerm;20450;49.074;9.158;2023-05-31T10:47:36;45.92;40.33;61.24;;
61095;Laerm;20450;49.074;9.158;2023-05-31T10:50:06;43.08;40.23;50.01;;
61095;Laerm;20450;49.074;9.158;2023-05-31T10:52:34;47.82;40.23;66.11;;
61095;Laerm;20450;49.074;9.158;2023-05-31T10:55:19;54.36;38.67;75.31;;
61095;Laerm;20450;49.074;9.158;2023-05-31T10:57:53;48.49;39.81;68.39;;
61095;Laerm;20450;49.074;9.158;2023-05-31T11:00:23;50.53;40.23;70.82;;
61095;Laerm;20450;49.074;9.158;2023-05-31T11:02:52;55.16;40.88;75.34;;
61095;Laerm;20450;49.074;9.158;2023-05-31T11:05:20;50.46;39.70;70.79;;
61095;Laerm;20450;49.074;9.158;2023-05-31T11:07:48;48.77;41.61;67.19;;
61095;Laerm;20450;49.074;9.158;2023-05-31T11:10:27;44.28;40.98;55.03;;
61095;Laerm;20450;49.074;9.158;2023-05-31T11:13:03;45.32;40.80;63.55;;
61095;Laerm;20450;49.074;9.158;2023-05-31T11:15:43;44.15;40.71;55.15;;
61095;Laerm;20450;49.074;9.158;2023-05-31T11:18:22;48.30;40.23;68.11;;
61095;Laerm;20450;49.074;9.158;2023-05-31T11:20:49;51.94;40.23;72.90;;
61095;Laerm;20450;49.074;9.158;2023-05-31T11:23:25;51.58;39.34;71.78;;
61095;Laerm;20450;49.074;9.158;2023-05-31T11:26:14;46.87;40.23;64.74;;
61095;Laerm;20450;49.074;9.158;2023-05-31T11:28:57;44.34;39.92;54.68;;
61095;Laerm;20450;49.074;9.158;2023-05-31T11:31:59;58.39;40.43;79.18;;
61095;Laerm;20450;49.074;9.158;2023-05-31T11:34:33;55.47;40.23;79.41;;
61095;Laerm;20450;49.074;9.158;2023-05-31T11:37:03;45.77;40.13;62.06;;
61095;Laerm;20450;49.074;9.158;2023-05-31T11:39:31;45.64;39.58;62.92;;
61095;Laerm;20450;49.074;9.158;2023-05-31T11:41:59;50.12;39.70;66.68;;
61095;Laerm;20450;49.074;9.158;2023-05-31T11:47:11;45.57;40.71;60.91;;
61095;Laerm;20450;49.074;9.158;2023-05-31T11:49:38;45.05;41.53;65.85;;
61095;Laerm;20450;49.074;9.158;2023-05-31T11:52:06;48.48;40.13;65.52;;
61095;Laerm;20450;49.074;9.158;2023-05-31T11:54:33;48.78;41.30;66.41;;
61095;Laerm;20450;49.074;9.158;2023-05-31T11:57:03;47.59;41.38;66.13;;
61095;Laerm;20450;49.074;9.158;2023-05-31T11:59:31;50.89;39.08;71.13;;
61095;Laerm;20450;49.074;9.158;2023-05-31T12:02:02;49.32;39.92;69.96;;
61095;Laerm;20450;49.074;9.158;2023-05-31T12:04:34;49.98;40.33;64.31;;
61095;Laerm;20450;49.074;9.158;2023-05-31T12:07:04;46.46;40.62;66.51;;
61095;Laerm;20450;49.074;9.158;2023-05-31T12:09:33;44.11;40.71;52.89;;
61095;Laerm;20450;49.074;9.158;2023-05-31T12:12:01;43.07;39.70;51.38;;
61095;Laerm;20450;49.074;9.158;2023-05-31T12:14:29;43.76;39.08;55.28;;
61095;Laerm;20450;49.074;9.158;2023-05-31T12:16:56;43.84;39.46;56.42;;
61095;Laerm;20450;49.074;9.158;2023-05-31T12:19:23;53.58;41.06;70.38;;
61095;Laerm;20450;49.074;9.158;2023-05-31T12:21:52;51.46;41.38;71.03;;
61095;Laerm;20450;49.074;9.158;2023-05-31T12:24:20;45.80;40.43;61.00;;
61095;Laerm;20450;49.074;9.158;2023-05-31T12:26:47;48.12;40.23;71.38;;
61095;Laerm;20450;49.074;9.158;2023-05-31T12:29:15;45.24;40.71;64.60;;
61095;Laerm;20450;49.074;9.158;2023-05-31T12:31:44;47.28;40.23;67.53;;
61095;Laerm;20450;49.074;9.158;2023-05-31T12:34:13;50.70;39.92;71.77;;
61095;Laerm;20450;49.074;9.158;2023-05-31T12:36:42;45.53;39.81;63.31;;
61095;Laerm;20450;49.074;9.158;2023-05-31T12:39:13;52.33;40.71;71.71;;
61095;Laerm;20450;49.074;9.158;2023-05-31T12:41:42;49.18;40.23;70.15;;
61095;Laerm;20450;49.074;9.158;2023-05-31T12:44:09;44.25;40.23;58.75;;
61095;Laerm;20450;49.074;9.158;2023-05-31T12:46:41;46.88;40.53;77.55;;
61095;Laerm;20450;49.074;9.158;2023-05-31T12:49:21;46.39;41.22;64.66;;
61095;Laerm;20450;49.074;9.158;2023-05-31T12:51:48;46.03;39.70;63.17;;
61095;Laerm;20450;49.074;9.158;2023-05-31T12:54:19;45.65;39.58;62.82;;
61095;Laerm;20450;49.074;9.158;2023-05-31T12:56:47;44.38;39.81;57.15;;
61095;Laerm;20450;49.074;9.158;2023-05-31T12:59:14;46.62;40.33;62.94;;
61095;Laerm;20450;49.074;9.158;2023-05-31T13:01:43;45.39;41.30;59.34;;
61095;Laerm;20450;49.074;9.158;2023-05-31T13:04:12;44.89;40.71;61.29;;
61095;Laerm;20450;49.074;9.158;2023-05-31T13:06:40;44.26;40.13;56.59;;
61095;Laerm;20450;49.074;9.158;2023-05-31T13:09:08;44.04;39.92;60.87;;
61095;Laerm;20450;49.074;9.158;2023-05-31T13:11:37;43.23;39.58;55.43;;
61095;Laerm;20450;49.074;9.158;2023-05-31T13:14:08;45.18;40.43;56.74;;
61095;Laerm;20450;49.074;9.158;2023-05-31T13:16:37;56.36;40.80;76.87;;
61095;Laerm;20450;49.074;9.158;2023-05-31T13:19:08;50.27;39.89;68.72;;
61095;Laerm;20450;49.074;9.158;2023-05-31T13:21:35;52.45;40.62;76.28;;
61095;Laerm;20450;49.074;9.158;2023-05-31T13:24:04;50.75;40.98;66.61;;
61095;Laerm;20450;49.074;9.158;2023-05-31T13:26:34;50.78;39.81;74.75;;
61095;Laerm;20450;49.074;9.158;2023-05-31T13:29:04;47.11;39.81;67.76;;
61095;Laerm;20450;49.074;9.158;2023-05-31T13:31:31;54.76;40.71;74.59;;
61095;Laerm;20450;49.074;9.158;2023-05-31T13:34:00;45.98;40.98;62.69;;
61095;Laerm;20450;49.074;9.158;2023-05-31T13:36:34;45.43;40.89;62.54;;
61095;Laerm;20450;49.074;9.158;2023-05-31T13:39:12;44.44;40.23;62.57;;
61095;Laerm;20450;49.074;9.158;2023-05-31T13:41:42;45.96;40.13;71.57;;
61095;Laerm;20450;49.074;9.158;2023-05-31T13:44:10;50.34;41.22;69.58;;
61095;Laerm;20450;49.074;9.158;2023-05-31T13:46:37;52.24;39.34;77.29;;
61095;Laerm;20450;49.074;9.158;2023-05-31T13:49:10;51.61;39.81;79.93;;
61095;Laerm;20450;49.074;9.158;2023-05-31T13:51:37;49.58;40.62;75.17;;
61095;Laerm;20450;49.074;9.158;2023-05-31T13:54:04;50.71;40.53;76.60;;
61095;Laerm;20450;49.074;9.158;2023-05-31T13:56:31;53.60;40.03;78.75;;
61095;Laerm;20450;49.074;9.158;2023-05-31T13:58:58;52.74;46.66;72.39;;
61095;Laerm;20450;49.074;9.158;2023-05-31T14:01:28;56.47;46.38;89.14;;
61095;Laerm;20450;49.074;9.158;2023-05-31T14:03:57;48.88;40.71;70.07;;
61095;Laerm;20450;49.074;9.158;2023-05-31T14:06:25;50.22;41.38;69.11;;
61095;Laerm;20450;49.074;9.158;2023-05-31T14:08:53;45.05;40.13;69.28;;
61095;Laerm;20450;49.074;9.158;2023-05-31T14:11:20;50.44;41.68;68.47;;
61095;Laerm;20450;49.074;9.158;2023-05-31T14:13:48;52.52;42.03;71.95;;
61095;Laerm;20450;49.074;9.158;2023-05-31T14:16:17;47.51;42.29;65.82;;
61095;Laerm;20450;49.074;9.158;2023-05-31T14:18:45;47.78;41.46;65.41;;